Time;durP1;ratioP1;P1;durP2;ratioP2;P2;SDS_P1;SDS_P2;PMS_P1;PMS_P2;Temp;Humidity;BMP_temperature;BMP_pressure;BME280_temperature;BME280_humidity;BME280_pressure;Samples;Min_cycle;Max_cycle;Signal;HPM_P1;HPM_P2
2023/08/28 00:01:35;;;;;;;2.47;1.58;;;;;;;;;;9940834;29;20486;-88
2023/08/28 00:06:41;;;;;;;3.42;1.90;;;;;;;;;;9927715;29;20065;-89
2023/08/28 00:11:48;;;;;;;3.58;1.70;;;;;;;;;;9946788;29;20086;-88
2023/08/28 00:16:52;;;;;;;3.92;1.88;;;;;;;;;;9940098;29;20054;-89
2023/08/28 00:22:03;;;;;;;4.88;2.10;;;;;;;;;;9929016;29;20544;-89
2023/08/28 00:27:07;;;;;;;3.47;1.63;;;;;;;;;;9949171;29;20091;-90
2023/08/28 00:32:12;;;;;;;5.78;1.73;;;;;;;;;;9941272;29;20444;-88
2023/08/28 00:37:17;;;;;;;3.42;1.85;;;;;;;;;;9931305;29;20061;-89
2023/08/28 00:42:22;;;;;;;4.35;1.67;;;;;;;;;;9974740;29;20057;-94
2023/08/28 00:47:27;;;;;;;4.05;1.58;;;;;;;;;;9950665;29;20568;-90
2023/08/28 00:52:35;;;;;;;2.38;1.60;;;;;;;;;;9947541;29;20084;-95
2023/08/28 00:57:46;;;;;;;5.43;1.52;;;;;;;;;;9994324;29;20157;-96
2023/08/28 01:02:52;;;;;;;4.50;1.70;;;;;;;;;;9957728;29;20086;-95
2023/08/28 01:08:10;;;;;;;4.15;1.67;;;;;;;;;;9948566;29;20047;-89
2023/08/28 01:13:20;;;;;;;3.08;1.80;;;;;;;;;;9930741;29;20067;-89
2023/08/28 01:18:24;;;;;;;7.00;2.33;;;;;;;;;;9928288;29;20046;-88
2023/08/28 01:23:37;;;;;;;5.55;1.60;;;;;;;;;;9932148;29;20063;-89
2023/08/28 01:28:42;;;;;;;4.90;1.75;;;;;;;;;;9943438;29;20115;-88
2023/08/28 01:33:46;;;;;;;5.70;1.88;;;;;;;;;;9936016;29;20093;-89
2023/08/28 01:38:56;;;;;;;5.38;1.92;;;;;;;;;;9944305;29;20115;-89
2023/08/28 01:44:02;;;;;;;4.35;1.92;;;;;;;;;;9925852;29;20129;-90
2023/08/28 01:49:08;;;;;;;5.22;1.88;;;;;;;;;;9942194;29;20125;-89
2023/08/28 01:54:15;;;;;;;5.65;2.17;;;;;;;;;;9929591;29;20409;-90
2023/08/28 01:59:24;;;;;;;5.85;2.80;;;;;;;;;;9936414;29;20091;-89
2023/08/28 02:04:32;;;;;;;4.18;1.90;;;;;;;;;;9940092;29;20047;-90
2023/08/28 02:09:40;;;;;;;3.33;2.00;;;;;;;;;;9946662;29;20129;-89
2023/08/28 02:14:46;;;;;;;4.28;2.10;;;;;;;;;;9915828;29;20565;-88
2023/08/28 02:19:52;;;;;;;4.13;2.60;;;;;;;;;;9910310;29;20043;-89
2023/08/28 02:25:00;;;;;;;4.35;1.95;;;;;;;;;;9929788;29;20270;-88
2023/08/28 02:30:12;;;;;;;5.03;2.58;;;;;;;;;;9937428;29;20099;-88
2023/08/28 02:35:27;;;;;;;4.20;2.20;;;;;;;;;;9911058;29;20058;-90
2023/08/28 02:40:46;;;;;;;4.50;1.90;;;;;;;;;;9945095;29;20041;-87
2023/08/28 02:45:54;;;;;;;2.63;1.67;;;;;;;;;;9948974;29;20360;-89
2023/08/28 02:51:01;;;;;;;3.97;2.17;;;;;;;;;;9929742;29;20038;-88
2023/08/28 02:56:19;;;;;;;5.35;2.20;;;;;;;;;;9930684;29;20494;-89
2023/08/28 03:01:34;;;;;;;5.35;2.30;;;;;;;;;;9932431;29;20191;-89
2023/08/28 03:06:41;;;;;;;3.28;2.10;;;;;;;;;;9936170;29;20062;-87
2023/08/28 03:11:46;;;;;;;3.88;2.25;;;;;;;;;;9920810;29;20296;-87
2023/08/28 03:16:52;;;;;;;4.10;2.42;;;;;;;;;;9916465;29;20149;-87
2023/08/28 03:21:59;;;;;;;3.25;1.92;;;;;;;;;;9922040;29;20565;-91
2023/08/28 03:27:07;;;;;;;3.75;2.20;;;;;;;;;;9933516;29;20067;-90
2023/08/28 03:32:12;;;;;;;4.20;2.38;;;;;;;;;;9929114;29;20103;-89
2023/08/28 03:37:18;;;;;;;2.90;1.80;;;;;;;;;;9940407;29;20096;-91
2023/08/28 03:42:29;;;;;;;4.00;2.35;;;;;;;;;;9939233;29;20066;-89
2023/08/28 03:47:39;;;;;;;4.50;2.10;;;;;;;;;;9933668;29;20514;-89
2023/08/28 03:52:44;;;;;;;4.25;1.80;;;;;;;;;;9932896;29;20043;-90
2023/08/28 03:57:50;;;;;;;4.28;1.88;;;;;;;;;;9945874;29;20058;-91
2023/08/28 04:02:56;;;;;;;5.68;2.40;;;;;;;;;;9955365;29;20180;-90
2023/08/28 04:08:01;;;;;;;4.53;2.20;;;;;;;;;;9947512;29;20178;-91
2023/08/28 04:13:15;;;;;;;5.38;2.45;;;;;;;;;;9930541;29;20385;-90
2023/08/28 04:18:21;;;;;;;4.55;2.20;;;;;;;;;;9937739;29;20046;-91
2023/08/28 04:23:26;;;;;;;4.05;2.40;;;;;;;;;;9926169;29;20049;-90
2023/08/28 04:28:33;;;;;;;5.40;2.60;;;;;;;;;;9939503;29;20043;-88
2023/08/28 04:33:41;;;;;;;5.65;2.45;;;;;;;;;;9929089;29;20254;-91
2023/08/28 04:38:48;;;;;;;5.25;2.70;;;;;;;;;;9963562;29;20042;-91
2023/08/28 04:43:53;;;;;;;4.55;2.50;;;;;;;;;;9950566;29;20515;-90
2023/08/28 04:48:59;;;;;;;7.32;2.70;;;;;;;;;;9944634;29;20075;-90
2023/08/28 04:54:04;;;;;;;5.60;2.40;;;;;;;;;;9941347;29;20038;-92
2023/08/28 04:59:09;;;;;;;5.85;2.72;;;;;;;;;;9928108;29;20102;-91
2023/08/28 05:04:19;;;;;;;8.18;2.90;;;;;;;;;;9948073;29;20049;-92
2023/08/28 05:09:25;;;;;;;4.38;2.42;;;;;;;;;;9976974;29;20103;-94
2023/08/28 05:14:33;;;;;;;4.55;2.30;;;;;;;;;;10003770;29;20073;-94
2023/08/28 05:19:37;;;;;;;5.05;2.78;;;;;;;;;;10145901;24;20478;-96
2023/08/28 05:24:43;;;;;;;5.43;2.83;;;;;;;;;;10121847;29;20116;-95
2023/08/28 05:29:47;;;;;;;5.72;2.47;;;;;;;;;;10111125;29;20122;-91
2023/08/28 05:34:53;;;;;;;6.70;2.53;;;;;;;;;;10090217;29;20507;-92
2023/08/28 05:39:56;;;;;;;7.85;2.60;;;;;;;;;;10097159;29;20101;-90
2023/08/28 05:44:58;;;;;;;7.07;2.30;;;;;;;;;;10095980;29;20510;-87
2023/08/28 05:50:03;;;;;;;5.47;2.50;;;;;;;;;;10104446;29;20128;-93
2023/08/28 05:55:05;;;;;;;5.97;2.83;;;;;;;;;;10082271;29;20452;-89
2023/08/28 06:00:09;;;;;;;6.00;2.72;;;;;;;;;;10089606;29;20045;-90
2023/08/28 06:05:13;;;;;;;5.50;2.78;;;;;;;;;;10065086;29;20041;-90
2023/08/28 06:10:19;;;;;;;5.38;2.72;;;;;;;;;;10091958;29;20076;-84
2023/08/28 06:15:21;;;;;;;4.65;2.70;;;;;;;;;;10086120;29;20045;-85
2023/08/28 06:20:25;;;;;;;5.82;3.40;;;;;;;;;;10079111;29;20152;-85
2023/08/28 06:25:28;;;;;;;4.93;2.80;;;;;;;;;;10085409;29;20053;-86
2023/08/28 06:30:31;;;;;;;7.63;3.30;;;;;;;;;;10093054;29;20065;-86
2023/08/28 06:35:35;;;;;;;7.15;3.05;;;;;;;;;;10082568;29;20147;-86
2023/08/28 06:40:38;;;;;;;5.03;2.83;;;;;;;;;;10079761;29;20048;-86
2023/08/28 06:45:40;;;;;;;5.60;3.05;;;;;;;;;;10084698;29;20131;-87
2023/08/28 06:50:44;;;;;;;4.78;2.53;;;;;;;;;;10087175;29;20486;-86
2023/08/28 06:55:47;;;;;;;5.15;2.30;;;;;;;;;;10086957;29;20109;-87
2023/08/28 07:00:49;;;;;;;5.03;2.50;;;;;;;;;;10084146;29;20041;-87
2023/08/28 07:05:53;;;;;;;5.50;2.60;;;;;;;;;;10095821;29;20048;-86
2023/08/28 07:10:59;;;;;;;6.95;2.60;;;;;;;;;;10087353;29;20556;-87
2023/08/28 07:16:01;;;;;;;4.70;2.72;;;;;;;;;;10080932;29;20049;-86
2023/08/28 07:21:06;;;;;;;3.63;2.20;;;;;;;;;;10082903;29;20076;-85
2023/08/28 07:26:08;;;;;;;4.13;2.28;;;;;;;;;;10091936;29;20065;-85
2023/08/28 07:31:12;;;;;;;4.45;2.17;;;;;;;;;;10073104;29;20161;-84
2023/08/28 07:36:23;;;;;;;5.43;2.72;;;;;;;;;;10089311;29;20109;-83
2023/08/28 07:41:26;;;;;;;5.18;2.85;;;;;;;;;;10097658;29;20394;-87
2023/08/28 07:46:30;;;;;;;5.80;2.30;;;;;;;;;;10074430;29;20519;-85
2023/08/28 07:51:34;;;;;;;3.70;1.90;;;;;;;;;;10085985;29;20314;-86
2023/08/28 07:56:37;;;;;;;4.38;2.40;;;;;;;;;;10095605;29;20053;-86
2023/08/28 08:01:40;;;;;;;4.03;2.45;;;;;;;;;;10078596;29;20128;-86
2023/08/28 08:06:44;;;;;;;3.95;2.15;;;;;;;;;;10097747;29;20048;-87
2023/08/28 08:11:46;;;;;;;4.80;2.20;;;;;;;;;;10088273;29;20128;-86
2023/08/28 08:16:49;;;;;;;6.65;2.75;;;;;;;;;;10093296;29;20224;-86
2023/08/28 08:21:53;;;;;;;5.47;2.58;;;;;;;;;;10096180;29;20048;-86
2023/08/28 08:26:56;;;;;;;4.20;1.90;;;;;;;;;;10089629;29;20063;-86
2023/08/28 08:31:59;;;;;;;4.18;2.67;;;;;;;;;;10087836;29;20140;-86
2023/08/28 08:37:03;;;;;;;4.13;2.90;;;;;;;;;;10083652;29;20136;-86
2023/08/28 08:42:05;;;;;;;4.78;2.70;;;;;;;;;;10083543;29;20768;-86
2023/08/28 08:47:08;;;;;;;8.90;4.30;;;;;;;;;;10085880;29;20057;-87
2023/08/28 08:52:13;;;;;;;4.82;2.20;;;;;;;;;;10077927;29;20056;-87
2023/08/28 08:57:21;;;;;;;5.68;2.65;;;;;;;;;;10097511;29;20377;-90
2023/08/28 09:02:24;;;;;;;3.45;1.98;;;;;;;;;;10108894;29;20047;-91
2023/08/28 09:07:29;;;;;;;3.38;2.25;;;;;;;;;;10108321;29;20076;-92
2023/08/28 09:12:32;;;;;;;4.80;1.70;;;;;;;;;;10099044;29;20088;-92
2023/08/28 09:17:40;;;;;;;3.65;1.85;;;;;;;;;;10109853;29;20069;-92
2023/08/28 09:22:47;;;;;;;3.38;1.90;;;;;;;;;;10097281;29;20057;-92
2023/08/28 09:27:56;;;;;;;3.08;1.70;;;;;;;;;;10091107;29;20056;-92
2023/08/28 09:33:04;;;;;;;2.67;1.77;;;;;;;;;;10092959;29;20235;-92
2023/08/28 09:38:17;;;;;;;3.38;1.80;;;;;;;;;;10102493;29;20056;-92
2023/08/28 09:43:40;;;;;;;2.35;1.50;;;;;;;;;;10608491;27;20423;-90
2023/08/28 09:48:42;;;;;;;1.90;1.35;;;;;;;;;;10604360;27;20067;-91
2023/08/28 09:53:58;;;;;;;2.23;1.40;;;;;;;;;;10611156;27;20054;-94
2023/08/28 09:59:03;;;;;;;2.97;1.60;;;;;;;;;;10618259;27;20496;-90
2023/08/28 10:04:06;;;;;;;2.50;1.52;;;;;;;;;;10600678;27;20133;-91
2023/08/28 10:09:10;;;;;;;;;;;;;;;;;;10610906;27;20126;-93
2023/08/28 10:14:15;;;;;;;2.65;1.40;;;;;;;;;;10593289;27;20121;-92
2023/08/28 10:19:19;;;;;;;1.70;1.23;;;;;;;;;;10600015;27;20062;-93
2023/08/28 10:24:22;;;;;;;1.55;1.20;;;;;;;;;;10592166;27;20525;-89
2023/08/28 10:29:27;;;;;;;2.65;1.40;;;;;;;;;;10571470;27;20156;-89
2023/08/28 10:34:30;;;;;;;1.50;1.33;;;;;;;;;;10574726;27;20058;-90
2023/08/28 10:39:32;;;;;;;1.90;1.23;;;;;;;;;;10586670;27;20112;-90
2023/08/28 10:44:36;;;;;;;2.08;1.13;;;;;;;;;;10590670;27;20047;-89
2023/08/28 10:49:39;;;;;;;1.98;1.27;;;;;;;;;;10585988;27;20146;-87
2023/08/28 10:54:44;;;;;;;1.65;1.10;;;;;;;;;;10567267;27;20055;-87
2023/08/28 10:59:49;;;;;;;2.92;1.45;;;;;;;;;;10562224;28;20126;-86
2023/08/28 11:04:51;;;;;;;1.58;1.15;;;;;;;;;;10556979;27;20039;-87
2023/08/28 11:10:15;;;;;;;2.47;1.15;;;;;;;;;;10560483;27;20048;-86
2023/08/28 11:15:26;;;;;;;1.52;1.15;;;;;;;;;;10541113;27;20062;-87
2023/08/28 11:20:36;;;;;;;3.90;1.23;;;;;;;;;;10544047;27;20071;-87
2023/08/28 11:25:40;;;;;;;1.13;0.90;;;;;;;;;;10561558;27;20161;-87
2023/08/28 11:30:44;;;;;;;1.45;1.20;;;;;;;;;;10556920;27;21266;-87
2023/08/28 11:35:47;;;;;;;1.05;0.90;;;;;;;;;;10591881;28;20551;-85
2023/08/28 11:40:54;;;;;;;1.20;1.00;;;;;;;;;;10602301;27;20051;-92
2023/08/28 11:45:58;;;;;;;1.55;0.90;;;;;;;;;;10571166;27;20062;-94
2023/08/28 11:51:02;;;;;;;1.70;1.00;;;;;;;;;;10548440;27;20036;-92
2023/08/28 11:56:05;;;;;;;1.70;0.98;;;;;;;;;;10564434;28;20115;-93
2023/08/28 12:01:12;;;;;;;2.10;1.08;;;;;;;;;;10560749;28;20112;-89
2023/08/28 12:06:20;;;;;;;3.70;1.20;;;;;;;;;;10561458;28;20104;-88
2023/08/28 12:11:22;;;;;;;2.80;1.38;;;;;;;;;;10557161;28;20128;-87
2023/08/28 12:16:28;;;;;;;1.90;1.03;;;;;;;;;;10562791;28;20128;-86
2023/08/28 12:21:34;;;;;;;1.08;0.90;;;;;;;;;;10556759;28;20669;-87
2023/08/28 12:26:37;;;;;;;1.10;1.00;;;;;;;;;;10561358;27;20040;-87
2023/08/28 12:31:41;;;;;;;2.47;1.25;;;;;;;;;;10562961;28;20052;-87
2023/08/28 12:36:45;;;;;;;1.50;1.10;;;;;;;;;;10562315;27;20055;-87
2023/08/28 12:41:48;;;;;;;2.63;1.33;;;;;;;;;;10559276;28;20515;-87
2023/08/28 12:46:51;;;;;;;;;;;;;;;;;;10560547;28;20112;-87
2023/08/28 12:51:55;;;;;;;1.02;0.73;;;;;;;;;;10542636;28;19959;-88
2023/08/28 12:56:58;;;;;;;1.38;0.85;;;;;;;;;;10561070;28;20114;-88
2023/08/28 13:02:01;;;;;;;1.57;0.83;;;;;;;;;;10561992;28;20039;-88
2023/08/28 13:07:05;;;;;;;0.73;0.73;;;;;;;;;;10558954;28;20639;-88
2023/08/28 13:12:09;;;;;;;1.27;0.85;;;;;;;;;;10560872;28;20059;-90
2023/08/28 13:17:13;;;;;;;1.83;1.00;;;;;;;;;;10565450;27;20040;-88
2023/08/28 13:22:17;;;;;;;1.02;0.90;;;;;;;;;;10559776;28;20135;-88
2023/08/28 13:27:20;;;;;;;3.08;1.48;;;;;;;;;;10548697;27;20040;-87
2023/08/28 13:32:23;;;;;;;2.27;0.93;;;;;;;;;;10564214;28;20052;-89
2023/08/28 13:37:28;;;;;;;1.30;1.00;;;;;;;;;;10551154;28;20051;-89
2023/08/28 13:42:30;;;;;;;6.28;1.33;;;;;;;;;;10553890;28;20068;-90
2023/08/28 13:47:33;;;;;;;1.23;1.00;;;;;;;;;;10561175;28;20154;-89
2023/08/28 13:52:37;;;;;;;2.00;1.17;;;;;;;;;;10564520;28;20036;-88
2023/08/28 13:57:40;;;;;;;1.67;1.20;;;;;;;;;;10559903;28;20059;-88
2023/08/28 14:02:43;;;;;;;2.63;0.93;;;;;;;;;;10542346;28;20028;-88
2023/08/28 14:07:47;;;;;;;1.65;1.10;;;;;;;;;;10559932;28;20040;-88
2023/08/28 14:12:50;;;;;;;3.42;1.05;;;;;;;;;;10556639;28;20122;-89
2023/08/28 14:17:52;;;;;;;2.10;1.10;;;;;;;;;;10564323;28;20051;-89
2023/08/28 14:22:56;;;;;;;2.37;1.40;;;;;;;;;;10556803;28;20049;-88
2023/08/28 14:27:59;;;;;;;3.55;1.70;;;;;;;;;;10564917;27;20046;-88
2023/08/28 14:33:17;;;;;;;11.57;5.13;;;;;;;;;;10566865;28;20048;-89
2023/08/28 14:38:22;;;;;;;1.98;1.15;;;;;;;;;;10564757;27;20048;-87
2023/08/28 14:43:24;;;;;;;3.38;1.30;;;;;;;;;;10566962;27;20036;-88
2023/08/28 14:48:27;;;;;;;1.60;1.23;;;;;;;;;;10571321;27;20075;-86
2023/08/28 14:53:31;;;;;;;0.97;0.80;;;;;;;;;;10571167;27;20048;-88
2023/08/28 14:58:33;;;;;;;1.42;0.90;;;;;;;;;;10563172;28;20131;-89
2023/08/28 15:03:37;;;;;;;2.28;1.30;;;;;;;;;;10569645;27;20115;-89
2023/08/28 15:08:41;;;;;;;3.42;0.85;;;;;;;;;;10565059;28;20124;-84
2023/08/28 15:13:43;;;;;;;1.35;0.90;;;;;;;;;;10567059;28;20059;-84
2023/08/28 15:18:46;;;;;;;1.42;1.05;;;;;;;;;;10572124;27;20050;-85
2023/08/28 15:23:50;;;;;;;1.10;1.00;;;;;;;;;;10566736;27;20043;-86
2023/08/28 15:28:53;;;;;;;1.55;0.90;;;;;;;;;;10563043;27;20123;-84
2023/08/28 15:33:56;;;;;;;1.00;0.77;;;;;;;;;;10565442;27;20201;-89
2023/08/28 15:39:00;;;;;;;5.70;1.77;;;;;;;;;;10570119;27;20050;-87
2023/08/28 15:44:03;;;;;;;3.60;1.95;;;;;;;;;;10567395;27;20125;-86
2023/08/28 15:49:05;;;;;;;0.90;0.90;;;;;;;;;;10569961;27;20435;-87
2023/08/28 15:54:10;;;;;;;1.90;1.10;;;;;;;;;;10566267;27;20039;-86
2023/08/28 15:59:12;;;;;;;2.17;1.25;;;;;;;;;;10571355;27;20203;-86
2023/08/28 16:04:17;;;;;;;1.25;1.02;;;;;;;;;;10566642;27;20047;-87
2023/08/28 16:09:21;;;;;;;2.90;1.42;;;;;;;;;;10564995;27;20150;-87
2023/08/28 16:14:24;;;;;;;3.88;1.48;;;;;;;;;;10570816;28;20044;-88
2023/08/28 16:19:27;;;;;;;3.73;1.90;;;;;;;;;;10573186;27;20054;-87
2023/08/28 16:24:30;;;;;;;4.38;2.38;;;;;;;;;;10569415;27;20465;-85
2023/08/28 16:29:33;;;;;;;3.70;2.25;;;;;;;;;;10571204;27;20516;-87
2023/08/28 16:34:36;;;;;;;5.67;3.20;;;;;;;;;;10562935;27;20036;-87
2023/08/28 16:39:40;;;;;;;3.92;2.33;;;;;;;;;;10561767;27;20127;-87
2023/08/28 16:44:43;;;;;;;3.78;2.20;;;;;;;;;;10559273;27;20503;-87
2023/08/28 16:49:45;;;;;;;6.13;2.28;;;;;;;;;;10565423;27;20107;-86
2023/08/28 16:54:49;;;;;;;4.40;2.10;;;;;;;;;;10568005;27;20065;-85
2023/08/28 16:59:53;;;;;;;4.00;2.40;;;;;;;;;;10566798;27;20059;-87
2023/08/28 17:04:55;;;;;;;;;;;;;;;;;;10574166;27;20055;-87
2023/08/28 17:10:02;;;;;;;4.05;2.90;;;;;;;;;;10564760;27;19966;-86
2023/08/28 17:15:06;;;;;;;6.22;3.42;;;;;;;;;;10566224;27;20046;-87
2023/08/28 17:20:09;;;;;;;4.15;2.88;;;;;;;;;;10556701;27;20047;-87
2023/08/28 17:25:13;;;;;;;8.07;4.03;;;;;;;;;;10559794;28;20143;-86
2023/08/28 17:30:43;;;;;;;6.63;3.40;;;;;;;;;;10556933;27;20325;-86
2023/08/28 17:49:25;;;;;;;5.68;3.28;;;;;;;;;;10175947;28;20048;-86
2023/08/28 18:07:03;;;;;;;5.13;3.22;;;;;;;;;;10503969;28;20063;-86
2023/08/28 18:12:53;;;;;;;6.60;3.27;;;;;;;;;;10511480;28;20397;-86
2023/08/28 18:18:24;;;;;;;4.68;3.08;;;;;;;;;;10524483;28;20341;-86
2023/08/28 18:37:16;;;;;;;6.45;4.00;;;;;;;;;;10400645;28;20048;-86
2023/08/28 19:45:33;;;;;;;4.07;2.38;;;;;;;;;;10024264;29;20060;-86
2023/08/28 20:42:38;;;;;;;5.97;2.88;;;;;;;;;;10262610;28;20046;-85
2023/08/28 20:48:10;;;;;;;3.80;2.22;;;;;;;;;;10310350;28;20070;-85
2023/08/28 21:00:35;;;;;;;;;;;;;;;;;;9893182;29;20187;-85
2023/08/28 21:06:32;;;;;;;;;;;;;;;;;;10133087;28;19928;-85
2023/08/28 21:11:57;;;;;;;1.90;1.20;;;;;;;;;;10485016;28;19931;-85
2023/08/28 21:30:41;;;;;;;1.88;1.38;;;;;;;;;;10213279;28;20427;-85
2023/08/28 21:42:57;;;;;;;3.75;1.58;;;;;;;;;;10344835;28;20046;-84
2023/08/28 22:08:04;;;;;;;2.22;1.70;;;;;;;;;;10260404;28;20018;-90
2023/08/28 22:14:19;;;;;;;2.70;1.85;;;;;;;;;;10424603;28;20200;-92
2023/08/28 22:20:00;;;;;;;3.40;2.10;;;;;;;;;;10414942;28;20040;-93
2023/08/28 22:38:34;;;;;;;1.52;1.40;;;;;;;;;;10362835;28;20511;-91
2023/08/28 22:43:37;;;;;;;4.38;1.92;;;;;;;;;;10502967;28;20160;-91
2023/08/28 22:48:44;;;;;;;2.53;1.63;;;;;;;;;;10532312;28;20056;-90
2023/08/28 22:53:46;;;;;;;3.90;1.90;;;;;;;;;;10529624;28;20036;-92
2023/08/28 22:58:49;;;;;;;2.40;1.60;;;;;;;;;;10520361;28;20424;-93
2023/08/28 23:03:53;;;;;;;3.20;1.80;;;;;;;;;;10537423;28;20074;-90
2023/08/28 23:08:55;;;;;;;3.35;1.83;;;;;;;;;;10508815;28;20546;-89
2023/08/28 23:13:58;;;;;;;2.58;1.67;;;;;;;;;;10527433;28;20429;-91
2023/08/28 23:19:02;;;;;;;3.35;1.63;;;;;;;;;;10521760;28;20087;-90
2023/08/28 23:24:05;;;;;;;5.30;1.90;;;;;;;;;;10522733;28;20067;-93
2023/08/28 23:29:07;;;;;;;3.33;2.25;;;;;;;;;;10527901;28;20759;-93
2023/08/28 23:34:11;;;;;;;3.75;2.05;;;;;;;;;;10527873;28;20174;-92
2023/08/28 23:39:14;;;;;;;4.65;2.20;;;;;;;;;;10527163;28;20118;-91
2023/08/28 23:44:16;;;;;;;3.08;1.88;;;;;;;;;;10523553;28;20115;-94
2023/08/28 23:49:21;;;;;;;2.88;1.95;;;;;;;;;;10529414;28;20119;-94
2023/08/28 23:54:23;;;;;;;2.85;1.75;;;;;;;;;;10525284;28;20032;-94
2023/08/28 23:59:26;;;;;;;4.38;2.00;;;;;;;;;;10532496;28;20376;-94
